sensor_id;sensor_type;location;lat;lon;timestamp;P1;durP1;ratioP1;P2;durP2;ratioP2
8632;SDS011;4354;49.832;10.746;2023-04-10T00:02:22;15.50;;;13.30;;
8632;SDS011;4354;49.832;10.746;2023-04-10T00:04:49;15.17;;;11.77;;
8632;SDS011;4354;49.832;10.746;2023-04-10T00:07:16;14.03;;;11.60;;
8632;SDS011;4354;49.832;10.746;2023-04-10T00:09:43;16.83;;;13.03;;
8632;SDS011;4354;49.832;10.746;2023-04-10T00:12:10;17.73;;;12.97;;
8632;SDS011;4354;49.832;10.746;2023-04-10T00:14:36;20.33;;;14.47;;
8632;SDS011;4354;49.832;10.746;2023-04-10T00:17:03;17.87;;;12.63;;
8632;SDS011;4354;49.832;10.746;2023-04-10T00:19:30;17.50;;;13.37;;
8632;SDS011;4354;49.832;10.746;2023-04-10T00:21:57;15.43;;;12.47;;
8632;SDS011;4354;49.832;10.746;2023-04-10T00:24:24;14.60;;;12.13;;
8632;SDS011;4354;49.832;10.746;2023-04-10T00:26:51;17.07;;;13.43;;
8632;SDS011;4354;49.832;10.746;2023-04-10T00:29:18;16.50;;;11.90;;
8632;SDS011;4354;49.832;10.746;2023-04-10T00:31:44;15.73;;;11.73;;
8632;SDS011;4354;49.832;10.746;2023-04-10T00:34:11;13.80;;;11.53;;
8632;SDS011;4354;49.832;10.746;2023-04-10T00:36:39;14.97;;;11.70;;
8632;SDS011;4354;49.832;10.746;2023-04-10T00:39:07;14.13;;;11.60;;
8632;SDS011;4354;49.832;10.746;2023-04-10T00:41:34;14.57;;;11.27;;
8632;SDS011;4354;49.832;10.746;2023-04-10T00:44:00;15.20;;;12.20;;
8632;SDS011;4354;49.832;10.746;2023-04-10T00:46:28;13.80;;;11.53;;
8632;SDS011;4354;49.832;10.746;2023-04-10T00:48:56;14.53;;;10.80;;
8632;SDS011;4354;49.832;10.746;2023-04-10T00:51:23;15.23;;;12.33;;
8632;SDS011;4354;49.832;10.746;2023-04-10T00:53:51;15.20;;;11.80;;
8632;SDS011;4354;49.832;10.746;2023-04-10T00:56:23;15.43;;;12.03;;
8632;SDS011;4354;49.832;10.746;2023-04-10T00:58:50;16.00;;;13.13;;
8632;SDS011;4354;49.832;10.746;2023-04-10T01:01:18;16.37;;;12.73;;
8632;SDS011;4354;49.832;10.746;2023-04-10T01:03:45;17.20;;;13.67;;
8632;SDS011;4354;49.832;10.746;2023-04-10T01:11:52;16.27;;;13.00;;
8632;SDS011;4354;49.832;10.746;2023-04-10T01:17:04;15.97;;;12.13;;
8632;SDS011;4354;49.832;10.746;2023-04-10T01:22:04;16.47;;;11.60;;
8632;SDS011;4354;49.832;10.746;2023-04-10T01:24:55;13.13;;;10.93;;
8632;SDS011;4354;49.832;10.746;2023-04-10T01:28:02;13.03;;;10.17;;
8632;SDS011;4354;49.832;10.746;2023-04-10T01:30:34;13.83;;;10.87;;
8632;SDS011;4354;49.832;10.746;2023-04-10T01:33:02;14.90;;;11.47;;
8632;SDS011;4354;49.832;10.746;2023-04-10T01:35:33;14.67;;;10.90;;
8632;SDS011;4354;49.832;10.746;2023-04-10T01:38:01;14.00;;;11.20;;
8632;SDS011;4354;49.832;10.746;2023-04-10T01:40:31;14.87;;;10.87;;
8632;SDS011;4354;49.832;10.746;2023-04-10T01:43:05;14.73;;;11.53;;
8632;SDS011;4354;49.832;10.746;2023-04-10T01:45:35;15.23;;;11.87;;
8632;SDS011;4354;49.832;10.746;2023-04-10T01:48:03;14.90;;;11.53;;
8632;SDS011;4354;49.832;10.746;2023-04-10T01:50:30;16.07;;;11.10;;
8632;SDS011;4354;49.832;10.746;2023-04-10T01:52:58;17.67;;;12.73;;
8632;SDS011;4354;49.832;10.746;2023-04-10T01:55:27;18.20;;;13.10;;
8632;SDS011;4354;49.832;10.746;2023-04-10T01:57:55;17.73;;;12.77;;
8632;SDS011;4354;49.832;10.746;2023-04-10T02:00:23;26.00;;;15.40;;
8632;SDS011;4354;49.832;10.746;2023-04-10T02:02:50;19.83;;;13.20;;
8632;SDS011;4354;49.832;10.746;2023-04-10T02:05:17;16.33;;;12.60;;
8632;SDS011;4354;49.832;10.746;2023-04-10T02:08:01;17.40;;;13.20;;
8632;SDS011;4354;49.832;10.746;2023-04-10T02:10:40;17.00;;;12.73;;
8632;SDS011;4354;49.832;10.746;2023-04-10T02:13:13;17.43;;;13.17;;
8632;SDS011;4354;49.832;10.746;2023-04-10T02:15:43;15.07;;;11.60;;
8632;SDS011;4354;49.832;10.746;2023-04-10T02:18:15;15.00;;;11.60;;
8632;SDS011;4354;49.832;10.746;2023-04-10T02:20:43;14.53;;;11.20;;
8632;SDS011;4354;49.832;10.746;2023-04-10T02:23:09;19.03;;;11.60;;
8632;SDS011;4354;49.832;10.746;2023-04-10T02:25:37;15.73;;;11.60;;
8632;SDS011;4354;49.832;10.746;2023-04-10T02:28:04;14.00;;;11.13;;
8632;SDS011;4354;49.832;10.746;2023-04-10T02:30:31;15.83;;;11.33;;
8632;SDS011;4354;49.832;10.746;2023-04-10T02:32:59;16.87;;;12.37;;
8632;SDS011;4354;49.832;10.746;2023-04-10T02:35:26;14.40;;;11.60;;
8632;SDS011;4354;49.832;10.746;2023-04-10T02:37:54;15.13;;;11.60;;
8632;SDS011;4354;49.832;10.746;2023-04-10T02:40:21;16.17;;;11.70;;
8632;SDS011;4354;49.832;10.746;2023-04-10T02:42:48;16.97;;;13.47;;
8632;SDS011;4354;49.832;10.746;2023-04-10T02:45:15;16.33;;;12.70;;
8632;SDS011;4354;49.832;10.746;2023-04-10T02:47:41;18.27;;;12.80;;
8632;SDS011;4354;49.832;10.746;2023-04-10T02:50:08;16.10;;;13.27;;
8632;SDS011;4354;49.832;10.746;2023-04-10T02:52:36;15.43;;;11.83;;
8632;SDS011;4354;49.832;10.746;2023-04-10T02:55:03;15.30;;;11.50;;
8632;SDS011;4354;49.832;10.746;2023-04-10T02:57:30;15.80;;;11.50;;
8632;SDS011;4354;49.832;10.746;2023-04-10T02:59:57;14.93;;;11.30;;
8632;SDS011;4354;49.832;10.746;2023-04-10T03:02:24;15.20;;;11.47;;
8632;SDS011;4354;49.832;10.746;2023-04-10T03:04:51;14.57;;;11.57;;
8632;SDS011;4354;49.832;10.746;2023-04-10T03:07:18;17.53;;;11.93;;
8632;SDS011;4354;49.832;10.746;2023-04-10T03:09:45;16.70;;;12.40;;
8632;SDS011;4354;49.832;10.746;2023-04-10T03:12:12;16.50;;;11.60;;
8632;SDS011;4354;49.832;10.746;2023-04-10T03:14:39;14.90;;;12.47;;
8632;SDS011;4354;49.832;10.746;2023-04-10T03:17:06;14.37;;;11.30;;
8632;SDS011;4354;49.832;10.746;2023-04-10T03:19:33;15.17;;;11.63;;
8632;SDS011;4354;49.832;10.746;2023-04-10T03:22:01;16.23;;;11.43;;
8632;SDS011;4354;49.832;10.746;2023-04-10T03:24:31;15.83;;;11.50;;
8632;SDS011;4354;49.832;10.746;2023-04-10T03:26:58;15.30;;;11.50;;
8632;SDS011;4354;49.832;10.746;2023-04-10T03:29:25;15.03;;;12.20;;
8632;SDS011;4354;49.832;10.746;2023-04-10T03:31:51;16.17;;;11.10;;
8632;SDS011;4354;49.832;10.746;2023-04-10T03:34:18;15.67;;;11.83;;
8632;SDS011;4354;49.832;10.746;2023-04-10T03:36:45;14.87;;;11.50;;
8632;SDS011;4354;49.832;10.746;2023-04-10T03:39:11;16.17;;;11.60;;
8632;SDS011;4354;49.832;10.746;2023-04-10T03:41:38;16.63;;;11.13;;
8632;SDS011;4354;49.832;10.746;2023-04-10T03:44:05;15.20;;;11.53;;
8632;SDS011;4354;49.832;10.746;2023-04-10T03:46:32;15.83;;;12.30;;
8632;SDS011;4354;49.832;10.746;2023-04-10T03:48:58;13.63;;;10.90;;
8632;SDS011;4354;49.832;10.746;2023-04-10T03:51:25;19.03;;;12.93;;
8632;SDS011;4354;49.832;10.746;2023-04-10T03:53:52;14.63;;;11.50;;
8632;SDS011;4354;49.832;10.746;2023-04-10T03:56:19;14.77;;;11.00;;
8632;SDS011;4354;49.832;10.746;2023-04-10T03:58:46;15.23;;;11.40;;
8632;SDS011;4354;49.832;10.746;2023-04-10T04:01:12;14.90;;;11.43;;
8632;SDS011;4354;49.832;10.746;2023-04-10T04:03:39;14.60;;;11.53;;
8632;SDS011;4354;49.832;10.746;2023-04-10T04:06:06;17.07;;;12.23;;
8632;SDS011;4354;49.832;10.746;2023-04-10T04:08:33;17.53;;;13.30;;
8632;SDS011;4354;49.832;10.746;2023-04-10T04:11:01;15.57;;;12.30;;
8632;SDS011;4354;49.832;10.746;2023-04-10T04:13:28;18.30;;;13.13;;
8632;SDS011;4354;49.832;10.746;2023-04-10T04:15:54;17.17;;;12.57;;
8632;SDS011;4354;49.832;10.746;2023-04-10T04:18:21;19.17;;;13.57;;
8632;SDS011;4354;49.832;10.746;2023-04-10T04:20:48;17.07;;;12.77;;
8632;SDS011;4354;49.832;10.746;2023-04-10T04:23:15;19.03;;;13.07;;
8632;SDS011;4354;49.832;10.746;2023-04-10T04:25:42;16.87;;;12.63;;
8632;SDS011;4354;49.832;10.746;2023-04-10T04:28:09;18.90;;;12.97;;
8632;SDS011;4354;49.832;10.746;2023-04-10T04:30:38;17.57;;;13.07;;
8632;SDS011;4354;49.832;10.746;2023-04-10T04:33:05;17.00;;;13.03;;
8632;SDS011;4354;49.832;10.746;2023-04-10T04:35:32;18.47;;;14.13;;
8632;SDS011;4354;49.832;10.746;2023-04-10T04:37:59;21.60;;;16.53;;
8632;SDS011;4354;49.832;10.746;2023-04-10T04:40:25;24.53;;;17.00;;
8632;SDS011;4354;49.832;10.746;2023-04-10T04:42:52;19.57;;;16.30;;
8632;SDS011;4354;49.832;10.746;2023-04-10T04:45:19;23.50;;;17.23;;
8632;SDS011;4354;49.832;10.746;2023-04-10T04:47:47;21.90;;;16.73;;
8632;SDS011;4354;49.832;10.746;2023-04-10T04:50:13;21.23;;;16.77;;
8632;SDS011;4354;49.832;10.746;2023-04-10T04:52:40;21.63;;;16.57;;
8632;SDS011;4354;49.832;10.746;2023-04-10T04:55:08;20.03;;;14.60;;
8632;SDS011;4354;49.832;10.746;2023-04-10T04:57:35;18.77;;;14.53;;
8632;SDS011;4354;49.832;10.746;2023-04-10T05:00:02;17.20;;;13.30;;
8632;SDS011;4354;49.832;10.746;2023-04-10T05:02:29;19.33;;;13.73;;
8632;SDS011;4354;49.832;10.746;2023-04-10T05:04:56;18.60;;;13.90;;
8632;SDS011;4354;49.832;10.746;2023-04-10T05:07:23;16.13;;;12.60;;
8632;SDS011;4354;49.832;10.746;2023-04-10T05:09:50;17.70;;;13.60;;
8632;SDS011;4354;49.832;10.746;2023-04-10T05:12:16;19.20;;;13.97;;
8632;SDS011;4354;49.832;10.746;2023-04-10T05:14:43;17.83;;;13.57;;
8632;SDS011;4354;49.832;10.746;2023-04-10T05:17:12;19.03;;;13.93;;
8632;SDS011;4354;49.832;10.746;2023-04-10T05:19:40;18.07;;;13.63;;
8632;SDS011;4354;49.832;10.746;2023-04-10T05:22:07;18.27;;;13.97;;
8632;SDS011;4354;49.832;10.746;2023-04-10T05:24:34;21.23;;;14.00;;
8632;SDS011;4354;49.832;10.746;2023-04-10T05:27:00;19.33;;;14.40;;
8632;SDS011;4354;49.832;10.746;2023-04-10T05:29:27;18.10;;;14.27;;
8632;SDS011;4354;49.832;10.746;2023-04-10T05:31:54;19.87;;;13.67;;
8632;SDS011;4354;49.832;10.746;2023-04-10T05:34:21;18.60;;;13.60;;
8632;SDS011;4354;49.832;10.746;2023-04-10T05:36:47;21.33;;;15.40;;
8632;SDS011;4354;49.832;10.746;2023-04-10T05:39:14;18.83;;;14.13;;
8632;SDS011;4354;49.832;10.746;2023-04-10T05:41:41;20.53;;;14.80;;
8632;SDS011;4354;49.832;10.746;2023-04-10T05:44:08;19.10;;;14.50;;
8632;SDS011;4354;49.832;10.746;2023-04-10T05:46:35;19.97;;;15.50;;
8632;SDS011;4354;49.832;10.746;2023-04-10T05:49:02;17.80;;;13.90;;
8632;SDS011;4354;49.832;10.746;2023-04-10T05:51:28;19.00;;;14.37;;
8632;SDS011;4354;49.832;10.746;2023-04-10T05:53:55;20.10;;;15.07;;
8632;SDS011;4354;49.832;10.746;2023-04-10T05:56:22;17.70;;;14.13;;
8632;SDS011;4354;49.832;10.746;2023-04-10T05:58:49;16.53;;;14.00;;
8632;SDS011;4354;49.832;10.746;2023-04-10T06:01:16;16.67;;;13.50;;
8632;SDS011;4354;49.832;10.746;2023-04-10T06:03:42;17.00;;;12.67;;
8632;SDS011;4354;49.832;10.746;2023-04-10T06:06:10;16.13;;;13.50;;
8632;SDS011;4354;49.832;10.746;2023-04-10T06:08:37;15.90;;;12.57;;
8632;SDS011;4354;49.832;10.746;2023-04-10T06:11:04;17.63;;;14.43;;
8632;SDS011;4354;49.832;10.746;2023-04-10T06:13:31;19.23;;;13.90;;
8632;SDS011;4354;49.832;10.746;2023-04-10T06:39:13;22.00;;;17.27;;
8632;SDS011;4354;49.832;10.746;2023-04-10T06:41:39;20.17;;;16.20;;
8632;SDS011;4354;49.832;10.746;2023-04-10T06:44:06;19.43;;;15.30;;
8632;SDS011;4354;49.832;10.746;2023-04-10T06:46:33;19.93;;;15.70;;
8632;SDS011;4354;49.832;10.746;2023-04-10T06:49:00;19.97;;;16.00;;
8632;SDS011;4354;49.832;10.746;2023-04-10T06:51:27;19.40;;;15.80;;
8632;SDS011;4354;49.832;10.746;2023-04-10T06:53:53;18.77;;;15.30;;
8632;SDS011;4354;49.832;10.746;2023-04-10T06:56:20;18.17;;;15.23;;
8632;SDS011;4354;49.832;10.746;2023-04-10T06:58:47;22.30;;;16.90;;
8632;SDS011;4354;49.832;10.746;2023-04-10T07:01:13;20.03;;;16.30;;
8632;SDS011;4354;49.832;10.746;2023-04-10T07:03:43;17.63;;;15.07;;
8632;SDS011;4354;49.832;10.746;2023-04-10T07:06:10;18.50;;;15.80;;
8632;SDS011;4354;49.832;10.746;2023-04-10T07:08:37;18.10;;;15.60;;
8632;SDS011;4354;49.832;10.746;2023-04-10T07:11:04;18.13;;;15.70;;
8632;SDS011;4354;49.832;10.746;2023-04-10T07:13:31;19.13;;;16.10;;
8632;SDS011;4354;49.832;10.746;2023-04-10T07:15:57;16.80;;;14.87;;
8632;SDS011;4354;49.832;10.746;2023-04-10T07:18:24;18.43;;;15.93;;
8632;SDS011;4354;49.832;10.746;2023-04-10T07:20:51;18.53;;;15.63;;
8632;SDS011;4354;49.832;10.746;2023-04-10T07:23:19;16.63;;;14.83;;
8632;SDS011;4354;49.832;10.746;2023-04-10T07:25:46;17.40;;;15.50;;
8632;SDS011;4354;49.832;10.746;2023-04-10T07:28:13;16.50;;;13.80;;
8632;SDS011;4354;49.832;10.746;2023-04-10T07:30:40;16.27;;;14.57;;
8632;SDS011;4354;49.832;10.746;2023-04-10T07:33:07;13.97;;;12.50;;
8632;SDS011;4354;49.832;10.746;2023-04-10T07:35:34;14.77;;;13.18;;
8632;SDS011;4354;49.832;10.746;2023-04-10T07:38:01;13.75;;;12.35;;
8632;SDS011;4354;49.832;10.746;2023-04-10T07:40:29;14.38;;;12.95;;
8632;SDS011;4354;49.832;10.746;2023-04-10T07:42:56;13.40;;;12.10;;
8632;SDS011;4354;49.832;10.746;2023-04-10T07:45:23;13.07;;;11.88;;
8632;SDS011;4354;49.832;10.746;2023-04-10T07:47:49;14.00;;;12.80;;
8632;SDS011;4354;49.832;10.746;2023-04-10T07:50:16;15.02;;;13.75;;
8632;SDS011;4354;49.832;10.746;2023-04-10T07:52:43;14.23;;;13.10;;
8632;SDS011;4354;49.832;10.746;2023-04-10T07:55:10;14.52;;;13.32;;
8632;SDS011;4354;49.832;10.746;2023-04-10T07:57:37;13.65;;;12.57;;
8632;SDS011;4354;49.832;10.746;2023-04-10T08:00:06;13.18;;;12.07;;
8632;SDS011;4354;49.832;10.746;2023-04-10T08:02:33;11.85;;;10.85;;
8632;SDS011;4354;49.832;10.746;2023-04-10T08:05:00;13.73;;;12.52;;
8632;SDS011;4354;49.832;10.746;2023-04-10T08:07:27;12.40;;;11.38;;
8632;SDS011;4354;49.832;10.746;2023-04-10T08:09:54;12.43;;;11.43;;
8632;SDS011;4354;49.832;10.746;2023-04-10T08:12:20;12.35;;;11.35;;
8632;SDS011;4354;49.832;10.746;2023-04-10T08:14:48;12.70;;;11.70;;
8632;SDS011;4354;49.832;10.746;2023-04-10T08:17:16;12.75;;;11.77;;
8632;SDS011;4354;49.832;10.746;2023-04-10T08:19:43;13.13;;;12.02;;
8632;SDS011;4354;49.832;10.746;2023-04-10T08:22:10;13.57;;;12.48;;
8632;SDS011;4354;49.832;10.746;2023-04-10T08:24:37;14.52;;;13.32;;
8632;SDS011;4354;49.832;10.746;2023-04-10T08:27:04;13.05;;;11.95;;
8632;SDS011;4354;49.832;10.746;2023-04-10T08:29:30;12.73;;;11.73;;
8632;SDS011;4354;49.832;10.746;2023-04-10T08:31:57;12.23;;;11.25;;
8632;SDS011;4354;49.832;10.746;2023-04-10T08:34:26;12.65;;;11.65;;
8632;SDS011;4354;49.832;10.746;2023-04-10T08:36:53;12.63;;;11.63;;
8632;SDS011;4354;49.832;10.746;2023-04-10T08:39:20;13.52;;;12.43;;
8632;SDS011;4354;49.832;10.746;2023-04-10T08:41:47;12.75;;;11.65;;
8632;SDS011;4354;49.832;10.746;2023-04-10T08:44:14;12.60;;;11.50;;
8632;SDS011;4354;49.832;10.746;2023-04-10T08:46:42;11.38;;;10.48;;
8632;SDS011;4354;49.832;10.746;2023-04-10T08:49:14;11.60;;;10.70;;
8632;SDS011;4354;49.832;10.746;2023-04-10T08:51:51;11.60;;;10.55;;
8632;SDS011;4354;49.832;10.746;2023-04-10T08:54:32;12.05;;;10.95;;
8632;SDS011;4354;49.832;10.746;2023-04-10T08:57:00;12.52;;;11.43;;
8632;SDS011;4354;49.832;10.746;2023-04-10T08:59:27;11.07;;;10.18;;
8632;SDS011;4354;49.832;10.746;2023-04-10T09:01:56;12.02;;;11.02;;
8632;SDS011;4354;49.832;10.746;2023-04-10T09:04:24;11.07;;;10.18;;
8632;SDS011;4354;49.832;10.746;2023-04-10T09:06:51;11.23;;;10.32;;
8632;SDS011;4354;49.832;10.746;2023-04-10T09:09:19;11.38;;;10.48;;
8632;SDS011;4354;49.832;10.746;2023-04-10T09:14:22;10.73;;;9.82;;
8632;SDS011;4354;49.832;10.746;2023-04-10T09:19:42;10.57;;;9.68;;
8632;SDS011;4354;49.832;10.746;2023-04-10T09:22:10;12.13;;;11.13;;
8632;SDS011;4354;49.832;10.746;2023-04-10T09:24:40;11.68;;;10.68;;
8632;SDS011;4354;49.832;10.746;2023-04-10T09:27:10;11.40;;;10.50;;
8632;SDS011;4354;49.832;10.746;2023-04-10T09:29:53;11.57;;;10.68;;
8632;SDS011;4354;49.832;10.746;2023-04-10T09:32:39;12.25;;;11.25;;
8632;SDS011;4354;49.832;10.746;2023-04-10T09:35:08;11.60;;;10.68;;
8632;SDS011;4354;49.832;10.746;2023-04-10T09:37:36;11.70;;;10.80;;
8632;SDS011;4354;49.832;10.746;2023-04-10T09:40:04;11.30;;;10.40;;
8632;SDS011;4354;49.832;10.746;2023-04-10T09:45:00;11.43;;;10.43;;
8632;SDS011;4354;49.832;10.746;2023-04-10T09:47:27;11.63;;;10.73;;
8632;SDS011;4354;49.832;10.746;2023-04-10T09:49:54;10.70;;;9.85;;
8632;SDS011;4354;49.832;10.746;2023-04-10T09:52:23;10.10;;;9.30;;
8632;SDS011;4354;49.832;10.746;2023-04-10T09:54:52;11.38;;;10.30;;
8632;SDS011;4354;49.832;10.746;2023-04-10T09:57:28;11.15;;;10.25;;
8632;SDS011;4354;49.832;10.746;2023-04-10T09:59:56;11.23;;;10.23;;
8632;SDS011;4354;49.832;10.746;2023-04-10T10:02:25;10.05;;;9.25;;
8632;SDS011;4354;49.832;10.746;2023-04-10T10:04:54;10.93;;;10.02;;
8632;SDS011;4354;49.832;10.746;2023-04-10T10:07:25;11.50;;;10.50;;
8632;SDS011;4354;49.832;10.746;2023-04-10T10:09:53;11.00;;;10.10;;
8632;SDS011;4354;49.832;10.746;2023-04-10T10:12:23;11.50;;;10.50;;
8632;SDS011;4354;49.832;10.746;2023-04-10T10:17:36;10.23;;;9.38;;
8632;SDS011;4354;49.832;10.746;2023-04-10T10:20:08;9.82;;;9.02;;
8632;SDS011;4354;49.832;10.746;2023-04-10T10:22:37;10.02;;;9.23;;
8632;SDS011;4354;49.832;10.746;2023-04-10T10:25:04;9.52;;;8.73;;
8632;SDS011;4354;49.832;10.746;2023-04-10T10:27:35;9.95;;;9.05;;
8632;SDS011;4354;49.832;10.746;2023-04-10T10:30:03;9.00;;;8.30;;
8632;SDS011;4354;49.832;10.746;2023-04-10T10:32:52;9.25;;;8.55;;
8632;SDS011;4354;49.832;10.746;2023-04-10T10:35:19;9.25;;;8.45;;
8632;SDS011;4354;49.832;10.746;2023-04-10T10:37:48;9.35;;;8.50;;
8632;SDS011;4354;49.832;10.746;2023-04-10T10:40:16;8.90;;;8.20;;
8632;SDS011;4354;49.832;10.746;2023-04-10T10:42:56;8.05;;;7.45;;
8632;SDS011;4354;49.832;10.746;2023-04-10T10:45:55;8.40;;;7.70;;
8632;SDS011;4354;49.832;10.746;2023-04-10T10:48:27;9.02;;;8.32;;
8632;SDS011;4354;49.832;10.746;2023-04-10T10:50:55;8.35;;;7.65;;
8632;SDS011;4354;49.832;10.746;2023-04-10T10:58:53;8.40;;;7.60;;
8632;SDS011;4354;49.832;10.746;2023-04-10T11:01:22;7.55;;;6.95;;
8632;SDS011;4354;49.832;10.746;2023-04-10T11:03:50;7.45;;;6.85;;
8632;SDS011;4354;49.832;10.746;2023-04-10T11:06:17;7.03;;;6.43;;
8632;SDS011;4354;49.832;10.746;2023-04-10T11:08:49;7.35;;;6.65;;
8632;SDS011;4354;49.832;10.746;2023-04-10T11:11:19;7.28;;;6.63;;
8632;SDS011;4354;49.832;10.746;2023-04-10T11:19:07;7.45;;;6.85;;
8632;SDS011;4354;49.832;10.746;2023-04-10T11:22:01;7.47;;;6.88;;
8632;SDS011;4354;49.832;10.746;2023-04-10T11:27:38;6.05;;;5.55;;
8632;SDS011;4354;49.832;10.746;2023-04-10T11:33:12;7.10;;;6.50;;
8632;SDS011;4354;49.832;10.746;2023-04-10T11:35:44;6.47;;;5.88;;
8632;SDS011;4354;49.832;10.746;2023-04-10T11:38:15;7.10;;;6.50;;
8632;SDS011;4354;49.832;10.746;2023-04-10T11:40:56;6.88;;;6.28;;
8632;SDS011;4354;49.832;10.746;2023-04-10T11:43:25;7.50;;;6.80;;
8632;SDS011;4354;49.832;10.746;2023-04-10T11:46:07;8.35;;;7.60;;
8632;SDS011;4354;49.832;10.746;2023-04-10T11:48:35;7.78;;;7.07;;
8632;SDS011;4354;49.832;10.746;2023-04-10T11:51:06;6.88;;;6.28;;
8632;SDS011;4354;49.832;10.746;2023-04-10T11:53:37;8.50;;;7.70;;
8632;SDS011;4354;49.832;10.746;2023-04-10T11:56:13;12.65;;;11.35;;
8632;SDS011;4354;49.832;10.746;2023-04-10T11:58:43;8.93;;;8.13;;
8632;SDS011;4354;49.832;10.746;2023-04-10T12:01:10;8.20;;;7.40;;
8632;SDS011;4354;49.832;10.746;2023-04-10T12:03:40;6.57;;;6.05;;
8632;SDS011;4354;49.832;10.746;2023-04-10T12:06:10;6.70;;;6.10;;
8632;SDS011;4354;49.832;10.746;2023-04-10T12:08:39;6.88;;;6.28;;
8632;SDS011;4354;49.832;10.746;2023-04-10T12:11:08;6.80;;;6.20;;
8632;SDS011;4354;49.832;10.746;2023-04-10T12:13:36;6.03;;;5.53;;
8632;SDS011;4354;49.832;10.746;2023-04-10T12:16:05;5.75;;;5.25;;
8632;SDS011;4354;49.832;10.746;2023-04-10T12:18:33;5.70;;;5.20;;
8632;SDS011;4354;49.832;10.746;2023-04-10T12:21:00;5.82;;;5.32;;
8632;SDS011;4354;49.832;10.746;2023-04-10T12:23:28;5.85;;;5.32;;
8632;SDS011;4354;49.832;10.746;2023-04-10T12:28:34;5.70;;;5.20;;
8632;SDS011;4354;49.832;10.746;2023-04-10T12:31:03;6.30;;;5.78;;
8632;SDS011;4354;49.832;10.746;2023-04-10T12:33:30;5.93;;;5.32;;
8632;SDS011;4354;49.832;10.746;2023-04-10T12:35:57;5.78;;;5.28;;
8632;SDS011;4354;49.832;10.746;2023-04-10T12:38:58;7.13;;;6.43;;
8632;SDS011;4354;49.832;10.746;2023-04-10T12:41:23;6.25;;;5.75;;
8632;SDS011;4354;49.832;10.746;2023-04-10T12:43:52;5.88;;;5.20;;
8632;SDS011;4354;49.832;10.746;2023-04-10T12:46:31;4.90;;;4.50;;
8632;SDS011;4354;49.832;10.746;2023-04-10T12:49:07;5.07;;;4.57;;
8632;SDS011;4354;49.832;10.746;2023-04-10T12:54:25;5.22;;;4.72;;
8632;SDS011;4354;49.832;10.746;2023-04-10T12:56:57;4.85;;;4.18;;
8632;SDS011;4354;49.832;10.746;2023-04-10T12:59:24;5.40;;;4.80;;
8632;SDS011;4354;49.832;10.746;2023-04-10T13:01:54;4.45;;;4.05;;
8632;SDS011;4354;49.832;10.746;2023-04-10T13:04:21;4.85;;;4.40;;
8632;SDS011;4354;49.832;10.746;2023-04-10T13:06:49;4.63;;;4.22;;
8632;SDS011;4354;49.832;10.746;2023-04-10T13:09:19;5.05;;;4.13;;
8632;SDS011;4354;49.832;10.746;2023-04-10T13:11:46;4.15;;;3.75;;
8632;SDS011;4354;49.832;10.746;2023-04-10T13:14:16;4.40;;;4.00;;
8632;SDS011;4354;49.832;10.746;2023-04-10T13:16:42;4.57;;;4.18;;
8632;SDS011;4354;49.832;10.746;2023-04-10T13:19:09;4.85;;;4.45;;
8632;SDS011;4354;49.832;10.746;2023-04-10T13:21:36;4.85;;;4.45;;
8632;SDS011;4354;49.832;10.746;2023-04-10T13:24:03;4.80;;;4.40;;
8632;SDS011;4354;49.832;10.746;2023-04-10T13:26:29;4.55;;;4.15;;
8632;SDS011;4354;49.832;10.746;2023-04-10T13:28:56;3.53;;;3.22;;
8632;SDS011;4354;49.832;10.746;2023-04-10T13:31:23;4.53;;;4.10;;
8632;SDS011;4354;49.832;10.746;2023-04-10T13:33:50;4.50;;;4.10;;
8632;SDS011;4354;49.832;10.746;2023-04-10T13:36:16;4.90;;;4.50;;
8632;SDS011;4354;49.832;10.746;2023-04-10T13:38:43;4.45;;;4.05;;
8632;SDS011;4354;49.832;10.746;2023-04-10T13:41:10;4.22;;;3.92;;
8632;SDS011;4354;49.832;10.746;2023-04-10T13:43:37;4.90;;;4.50;;
8632;SDS011;4354;49.832;10.746;2023-04-10T13:46:04;4.50;;;4.10;;
8632;SDS011;4354;49.832;10.746;2023-04-10T13:48:31;4.70;;;4.13;;
8632;SDS011;4354;49.832;10.746;2023-04-10T13:51:07;4.28;;;3.95;;
8632;SDS011;4354;49.832;10.746;2023-04-10T13:53:34;3.90;;;3.60;;
8632;SDS011;4354;49.832;10.746;2023-04-10T13:56:01;4.93;;;4.53;;
8632;SDS011;4354;49.832;10.746;2023-04-10T13:58:28;9.07;;;8.10;;
8632;SDS011;4354;49.832;10.746;2023-04-10T14:00:57;5.47;;;4.80;;
8632;SDS011;4354;49.832;10.746;2023-04-10T14:03:24;4.85;;;4.07;;
8632;SDS011;4354;49.832;10.746;2023-04-10T14:05:51;3.90;;;3.60;;
8632;SDS011;4354;49.832;10.746;2023-04-10T14:08:18;3.58;;;3.28;;
8632;SDS011;4354;49.832;10.746;2023-04-10T14:10:45;4.35;;;4.03;;
8632;SDS011;4354;49.832;10.746;2023-04-10T14:13:16;4.50;;;4.10;;
8632;SDS011;4354;49.832;10.746;2023-04-10T14:15:43;4.72;;;4.32;;
8632;SDS011;4354;49.832;10.746;2023-04-10T14:18:11;4.40;;;4.00;;
8632;SDS011;4354;49.832;10.746;2023-04-10T14:20:38;3.95;;;3.65;;
8632;SDS011;4354;49.832;10.746;2023-04-10T14:23:07;3.70;;;3.40;;
8632;SDS011;4354;49.832;10.746;2023-04-10T14:25:34;4.43;;;4.03;;
8632;SDS011;4354;49.832;10.746;2023-04-10T14:28:01;4.05;;;3.67;;
8632;SDS011;4354;49.832;10.746;2023-04-10T14:30:28;4.60;;;4.20;;
8632;SDS011;4354;49.832;10.746;2023-04-10T14:32:56;4.22;;;3.83;;
8632;SDS011;4354;49.832;10.746;2023-04-10T14:35:23;4.50;;;4.10;;
8632;SDS011;4354;49.832;10.746;2023-04-10T14:37:50;4.30;;;3.90;;
8632;SDS011;4354;49.832;10.746;2023-04-10T14:40:16;4.65;;;4.25;;
8632;SDS011;4354;49.832;10.746;2023-04-10T14:42:43;4.30;;;3.90;;
8632;SDS011;4354;49.832;10.746;2023-04-10T14:45:11;3.97;;;3.67;;
8632;SDS011;4354;49.832;10.746;2023-04-10T14:47:38;4.30;;;3.90;;
8632;SDS011;4354;49.832;10.746;2023-04-10T14:50:05;4.90;;;4.40;;
8632;SDS011;4354;49.832;10.746;2023-04-10T14:52:32;3.90;;;3.60;;
8632;SDS011;4354;49.832;10.746;2023-04-10T14:54:59;4.32;;;3.92;;
8632;SDS011;4354;49.832;10.746;2023-04-10T15:00:28;3.97;;;3.58;;
8632;SDS011;4354;49.832;10.746;2023-04-10T15:02:55;4.55;;;4.15;;
8632;SDS011;4354;49.832;10.746;2023-04-10T15:05:23;4.10;;;3.70;;
8632;SDS011;4354;49.832;10.746;2023-04-10T15:07:51;4.68;;;4.28;;
8632;SDS011;4354;49.832;10.746;2023-04-10T15:10:18;4.55;;;4.15;;
8632;SDS011;4354;49.832;10.746;2023-04-10T15:12:44;3.92;;;3.63;;
8632;SDS011;4354;49.832;10.746;2023-04-10T15:15:11;4.75;;;4.30;;
8632;SDS011;4354;49.832;10.746;2023-04-10T15:17:38;4.38;;;3.97;;
8632;SDS011;4354;49.832;10.746;2023-04-10T15:20:06;4.40;;;3.95;;
8632;SDS011;4354;49.832;10.746;2023-04-10T15:22:33;4.30;;;3.90;;
8632;SDS011;4354;49.832;10.746;2023-04-10T15:25:01;4.85;;;4.45;;
8632;SDS011;4354;49.832;10.746;2023-04-10T15:27:28;4.38;;;3.97;;
8632;SDS011;4354;49.832;10.746;2023-04-10T15:29:55;4.80;;;4.40;;
8632;SDS011;4354;49.832;10.746;2023-04-10T15:32:23;4.47;;;4.07;;
8632;SDS011;4354;49.832;10.746;2023-04-10T15:34:50;4.50;;;4.10;;
8632;SDS011;4354;49.832;10.746;2023-04-10T15:37:17;4.20;;;3.90;;
8632;SDS011;4354;49.832;10.746;2023-04-10T15:39:43;4.30;;;4.00;;
8632;SDS011;4354;49.832;10.746;2023-04-10T15:42:10;4.50;;;4.10;;
8632;SDS011;4354;49.832;10.746;2023-04-10T15:44:37;4.18;;;3.78;;
8632;SDS011;4354;49.832;10.746;2023-04-10T15:47:04;4.30;;;3.90;;
8632;SDS011;4354;49.832;10.746;2023-04-10T15:49:31;3.85;;;3.55;;
8632;SDS011;4354;49.832;10.746;2023-04-10T15:52:04;3.90;;;3.60;;
8632;SDS011;4354;49.832;10.746;2023-04-10T15:54:32;4.10;;;3.80;;
8632;SDS011;4354;49.832;10.746;2023-04-10T15:56:59;4.28;;;3.88;;
8632;SDS011;4354;49.832;10.746;2023-04-10T15:59:27;3.97;;;3.67;;
8632;SDS011;4354;49.832;10.746;2023-04-10T16:01:54;4.38;;;3.75;;